Nova Granada, Brazil
Current Conditions -  °F | °C
As of 10:00 PM on Friday 19 Dec 2014 (Local Time) from SBSR Reporting Station
Scattered Clouds Scattered Clouds  
Wind Chill: 86°   Ceiling: Unl
Heat Index: 87°   Visibility: 6mi
Dew Point: 64°   Wind: 5mph
Humidity: 48%   Direction: 50°NE
Pressure: 29.83"   Gusts: NA
Location:  20.53°S, 49.31°W
Report Text: SBSR 200000Z 05004KT 9999 SCT045 30/18 Q1010
Loading
Personal Weather Stations






























Interactive Weather Map New forecast layout! Learn more

10-Day Weather Forecast

Advertisements
Track Severe Weather on mobile